Cherokee, IA (51012)

11:42 AM CST on February 10, 2016 (GMT -0600)
APRSWXNET | | Change Station
CLOSE
Current Station
Personal Weather Station
Location: Cherokee, IA
Elevation: 1312 ft
Nearby Weather Stations

Elev 1312 ft 42.76 °N, 95.52 °W | Updated 39 minutes ago

Overcast
Overcast
15 °F
Feels Like 3 °F
N
9
Wind Variable Wind from East
Gusts 0.0 mph

Today
High -- | Low -- °F
--% Chance of Precip.
Yesterday
High -- | Low -- °F
Precip. -- in
Pressure 29.99 in
Visibility 7.0 miles
Clouds Scattered Clouds 1600 ft
Scattered Clouds 2900 ft
Overcast 5000 ft
Windchill 3 °F
Dew Point 12 °F
Humidity 87%
Rainfall in
Snow Depth Not available.
7:26 AM 5:46 PM
Waxing Crescent, 6% visible
METAR KCKP 101735Z AUTO 11009KT 7SM SCT016 SCT029 OVC050 M08/M10 A2999 RMK AO2 T10851105
Pressure 29.99 in
Visibility 7.0 miles
Clouds Scattered Clouds 1600 ft
Scattered Clouds 2900 ft
Overcast 5000 ft
Windchill 3 °F
Dew Point 12 °F
Humidity 87%
Rainfall in
Snow Depth Not available.
7:26 AM 5:46 PM
Waxing Crescent, 6% visible
METAR KCKP 101735Z AUTO 11009KT 7SM SCT016 SCT029 OVC050 M08/M10 A2999 RMK AO2 T10851105

10-Day Weather Forecast

Almanac

Astronomy

Feb. 10, 2016 Rise Set
Actual Time
Civil Twilight
Nautical Twilight
Astronomical Twilight
Moon
Length of Visible Light
Length of Day
Tomorrow will be .
, % of the Moon is Illuminated

Today's Extremes

State Highs State Lows

Community

WunderPhotos

Upload Photos

1,891,899 photos uploaded!

WunderBlog® & News

Nearby

Air Quality

  Air Quality AQ Index Pollutant
Not available.

Snow Depth

Station Depth Elevation

Earthquake Activity

City Distance Mag. Time & Date
Minimum magnitude displayed is 2.5.

Coastal Water Temperatures

Place Temperature

Stations

Nearby Weather Stations

Station Location Temp. Windchill Dew Point Humidity Wind Precip. Elev Updated Type
                   

Watches & Warnings

There are currently no watches in effect.